sensor_id;sensor_type;location;lat;lon;timestamp;P1;durP1;ratioP1;P2;durP2;ratioP2
17866;SDS011;9059;49.934;8.650;2023-06-14T00:04:49;4.88;;;2.85;;
17866;SDS011;9059;49.934;8.650;2023-06-14T00:34:55;4.32;;;2.75;;
17866;SDS011;9059;49.934;8.650;2023-06-14T01:04:59;4.93;;;3.13;;
17866;SDS011;9059;49.934;8.650;2023-06-14T01:35:04;6.28;;;3.40;;
17866;SDS011;9059;49.934;8.650;2023-06-14T02:05:09;6.55;;;3.28;;
17866;SDS011;9059;49.934;8.650;2023-06-14T02:35:16;5.97;;;2.97;;
17866;SDS011;9059;49.934;8.650;2023-06-14T03:05:21;5.78;;;2.97;;
17866;SDS011;9059;49.934;8.650;2023-06-14T03:35:28;6.35;;;2.75;;
17866;SDS011;9059;49.934;8.650;2023-06-14T04:05:32;5.10;;;2.25;;
17866;SDS011;9059;49.934;8.650;2023-06-14T04:35:36;5.38;;;2.45;;
17866;SDS011;9059;49.934;8.650;2023-06-14T05:05:41;3.72;;;2.42;;
17866;SDS011;9059;49.934;8.650;2023-06-14T05:35:46;13.02;;;2.65;;
17866;SDS011;9059;49.934;8.650;2023-06-14T06:05:50;10.35;;;3.30;;
17866;SDS011;9059;49.934;8.650;2023-06-14T06:35:54;6.07;;;2.70;;
17866;SDS011;9059;49.934;8.650;2023-06-14T07:05:59;10.45;;;2.97;;
17866;SDS011;9059;49.934;8.650;2023-06-14T07:36:05;6.32;;;2.60;;
17866;SDS011;9059;49.934;8.650;2023-06-14T08:06:09;6.10;;;2.42;;
17866;SDS011;9059;49.934;8.650;2023-06-14T08:36:13;2.50;;;1.60;;
17866;SDS011;9059;49.934;8.650;2023-06-14T09:06:18;4.35;;;1.45;;
17866;SDS011;9059;49.934;8.650;2023-06-14T09:36:26;2.28;;;1.20;;
17866;SDS011;9059;49.934;8.650;2023-06-14T10:06:30;2.42;;;1.50;;
17866;SDS011;9059;49.934;8.650;2023-06-14T10:36:37;2.63;;;1.60;;
17866;SDS011;9059;49.934;8.650;2023-06-14T11:06:46;1.80;;;1.60;;
17866;SDS011;9059;49.934;8.650;2023-06-14T11:36:51;2.35;;;1.60;;
17866;SDS011;9059;49.934;8.650;2023-06-14T12:07:38;2.30;;;1.65;;
17866;SDS011;9059;49.934;8.650;2023-06-14T12:10:43;2.13;;;1.75;;
17866;SDS011;9059;49.934;8.650;2023-06-14T12:13:46;2.53;;;1.52;;
17866;SDS011;9059;49.934;8.650;2023-06-14T12:17:03;2.17;;;1.70;;
17866;SDS011;9059;49.934;8.650;2023-06-14T12:20:09;2.28;;;1.70;;
17866;SDS011;9059;49.934;8.650;2023-06-14T12:23:16;4.20;;;1.90;;
17866;SDS011;9059;49.934;8.650;2023-06-14T12:26:19;2.70;;;1.95;;
17866;SDS011;9059;49.934;8.650;2023-06-14T12:29:23;6.13;;;1.83;;
17866;SDS011;9059;49.934;8.650;2023-06-14T12:32:25;3.58;;;1.88;;
17866;SDS011;9059;49.934;8.650;2023-06-14T12:35:29;4.53;;;2.15;;
17866;SDS011;9059;49.934;8.650;2023-06-14T12:38:33;4.05;;;2.10;;
17866;SDS011;9059;49.934;8.650;2023-06-14T12:41:36;3.00;;;2.10;;
17866;SDS011;9059;49.934;8.650;2023-06-14T12:44:39;3.42;;;1.85;;
17866;SDS011;9059;49.934;8.650;2023-06-14T12:47:44;5.75;;;2.28;;
17866;SDS011;9059;49.934;8.650;2023-06-14T12:50:47;3.05;;;2.05;;
17866;SDS011;9059;49.934;8.650;2023-06-14T12:53:51;3.45;;;2.17;;
17866;SDS011;9059;49.934;8.650;2023-06-14T12:56:54;2.50;;;2.08;;
17866;SDS011;9059;49.934;8.650;2023-06-14T12:59:57;3.20;;;2.00;;
17866;SDS011;9059;49.934;8.650;2023-06-14T13:03:02;2.90;;;2.03;;
17866;SDS011;9059;49.934;8.650;2023-06-14T13:06:05;2.60;;;2.05;;
17866;SDS011;9059;49.934;8.650;2023-06-14T13:09:09;3.95;;;1.83;;
17866;SDS011;9059;49.934;8.650;2023-06-14T13:12:12;5.10;;;2.38;;
17866;SDS011;9059;49.934;8.650;2023-06-14T13:15:15;2.85;;;2.00;;
17866;SDS011;9059;49.934;8.650;2023-06-14T13:18:18;2.17;;;1.65;;
17866;SDS011;9059;49.934;8.650;2023-06-14T13:21:23;3.28;;;1.75;;
17866;SDS011;9059;49.934;8.650;2023-06-14T13:24:27;2.25;;;1.80;;
17866;SDS011;9059;49.934;8.650;2023-06-14T13:27:31;4.30;;;1.90;;
17866;SDS011;9059;49.934;8.650;2023-06-14T13:30:34;5.68;;;2.00;;
17866;SDS011;9059;49.934;8.650;2023-06-14T13:33:37;4.25;;;2.00;;
17866;SDS011;9059;49.934;8.650;2023-06-14T13:36:39;6.63;;;1.90;;
17866;SDS011;9059;49.934;8.650;2023-06-14T13:39:44;2.13;;;1.83;;
17866;SDS011;9059;49.934;8.650;2023-06-14T13:42:46;2.70;;;2.00;;
17866;SDS011;9059;49.934;8.650;2023-06-14T13:45:49;1.95;;;1.73;;
17866;SDS011;9059;49.934;8.650;2023-06-14T13:48:52;2.40;;;1.80;;
17866;SDS011;9059;49.934;8.650;2023-06-14T13:51:55;2.03;;;1.73;;
17866;SDS011;9059;49.934;8.650;2023-06-14T13:55:00;3.78;;;1.80;;
17866;SDS011;9059;49.934;8.650;2023-06-14T13:58:03;2.40;;;1.90;;
17866;SDS011;9059;49.934;8.650;2023-06-14T14:01:06;5.03;;;2.10;;
17866;SDS011;9059;49.934;8.650;2023-06-14T14:04:08;2.58;;;2.08;;
17866;SDS011;9059;49.934;8.650;2023-06-14T14:07:12;2.10;;;1.80;;
17866;SDS011;9059;49.934;8.650;2023-06-14T14:10:17;4.57;;;1.92;;
17866;SDS011;9059;49.934;8.650;2023-06-14T14:13:21;2.90;;;2.10;;
17866;SDS011;9059;49.934;8.650;2023-06-14T14:16:24;4.00;;;1.98;;
17866;SDS011;9059;49.934;8.650;2023-06-14T14:19:27;5.22;;;2.00;;
17866;SDS011;9059;49.934;8.650;2023-06-14T14:22:30;3.35;;;1.73;;
17866;SDS011;9059;49.934;8.650;2023-06-14T14:25:34;2.45;;;2.03;;
17866;SDS011;9059;49.934;8.650;2023-06-14T14:28:36;6.45;;;2.00;;
17866;SDS011;9059;49.934;8.650;2023-06-14T14:31:39;2.70;;;1.80;;
17866;SDS011;9059;49.934;8.650;2023-06-14T14:34:42;2.45;;;1.73;;
17866;SDS011;9059;49.934;8.650;2023-06-14T14:37:45;4.10;;;1.75;;
17866;SDS011;9059;49.934;8.650;2023-06-14T14:40:49;2.60;;;2.00;;
17866;SDS011;9059;49.934;8.650;2023-06-14T14:43:52;2.47;;;1.90;;
17866;SDS011;9059;49.934;8.650;2023-06-14T14:46:55;2.22;;;1.60;;
17866;SDS011;9059;49.934;8.650;2023-06-14T14:49:58;2.42;;;2.05;;
17866;SDS011;9059;49.934;8.650;2023-06-14T14:53:00;3.60;;;1.92;;
17866;SDS011;9059;49.934;8.650;2023-06-14T14:56:05;2.10;;;1.70;;
17866;SDS011;9059;49.934;8.650;2023-06-14T14:59:08;4.40;;;2.05;;
17866;SDS011;9059;49.934;8.650;2023-06-14T15:02:12;3.65;;;1.67;;
17866;SDS011;9059;49.934;8.650;2023-06-14T15:05:15;2.45;;;1.83;;
17866;SDS011;9059;49.934;8.650;2023-06-14T15:08:19;4.55;;;1.80;;
17866;SDS011;9059;49.934;8.650;2023-06-14T15:11:24;3.38;;;1.70;;
17866;SDS011;9059;49.934;8.650;2023-06-14T15:14:27;4.38;;;1.65;;
17866;SDS011;9059;49.934;8.650;2023-06-14T15:17:30;2.17;;;1.40;;
17866;SDS011;9059;49.934;8.650;2023-06-14T15:20:33;3.33;;;1.73;;
17866;SDS011;9059;49.934;8.650;2023-06-14T15:23:39;3.05;;;1.70;;
17866;SDS011;9059;49.934;8.650;2023-06-14T15:26:45;3.90;;;1.80;;
17866;SDS011;9059;49.934;8.650;2023-06-14T15:29:48;2.28;;;1.67;;
17866;SDS011;9059;49.934;8.650;2023-06-14T15:32:52;2.72;;;1.55;;
17866;SDS011;9059;49.934;8.650;2023-06-14T15:35:55;4.47;;;1.48;;
17866;SDS011;9059;49.934;8.650;2023-06-14T15:38:59;2.40;;;1.80;;
17866;SDS011;9059;49.934;8.650;2023-06-14T15:42:03;2.85;;;1.40;;
17866;SDS011;9059;49.934;8.650;2023-06-14T15:45:07;6.00;;;1.70;;
17866;SDS011;9059;49.934;8.650;2023-06-14T15:48:11;2.85;;;1.75;;
17866;SDS011;9059;49.934;8.650;2023-06-14T15:51:14;3.05;;;1.77;;
17866;SDS011;9059;49.934;8.650;2023-06-14T15:54:18;5.03;;;1.67;;
17866;SDS011;9059;49.934;8.650;2023-06-14T15:57:22;1.98;;;1.58;;
17866;SDS011;9059;49.934;8.650;2023-06-14T16:00:25;2.15;;;1.52;;
17866;SDS011;9059;49.934;8.650;2023-06-14T16:03:28;7.20;;;1.92;;
17866;SDS011;9059;49.934;8.650;2023-06-14T16:06:31;5.43;;;1.45;;
17866;SDS011;9059;49.934;8.650;2023-06-14T16:09:33;4.03;;;1.42;;
17866;SDS011;9059;49.934;8.650;2023-06-14T16:12:38;2.10;;;1.60;;
17866;SDS011;9059;49.934;8.650;2023-06-14T16:15:40;2.33;;;1.75;;
17866;SDS011;9059;49.934;8.650;2023-06-14T16:18:43;5.65;;;1.73;;
17866;SDS011;9059;49.934;8.650;2023-06-14T16:21:46;2.95;;;1.60;;
17866;SDS011;9059;49.934;8.650;2023-06-14T16:24:48;3.97;;;1.70;;
17866;SDS011;9059;49.934;8.650;2023-06-14T16:27:53;2.10;;;1.77;;
17866;SDS011;9059;49.934;8.650;2023-06-14T16:30:55;2.40;;;1.45;;
17866;SDS011;9059;49.934;8.650;2023-06-14T16:33:58;4.00;;;1.70;;
17866;SDS011;9059;49.934;8.650;2023-06-14T16:37:01;2.45;;;1.55;;
17866;SDS011;9059;49.934;8.650;2023-06-14T16:40:06;4.28;;;1.67;;
17866;SDS011;9059;49.934;8.650;2023-06-14T16:43:11;3.75;;;1.48;;
17866;SDS011;9059;49.934;8.650;2023-06-14T16:46:14;3.55;;;1.63;;
17866;SDS011;9059;49.934;8.650;2023-06-14T16:49:17;3.03;;;1.77;;
17866;SDS011;9059;49.934;8.650;2023-06-14T16:52:19;3.42;;;1.63;;
17866;SDS011;9059;49.934;8.650;2023-06-14T16:55:22;1.95;;;1.65;;
17866;SDS011;9059;49.934;8.650;2023-06-14T16:58:26;8.07;;;1.73;;
17866;SDS011;9059;49.934;8.650;2023-06-14T17:01:29;2.00;;;1.80;;
17866;SDS011;9059;49.934;8.650;2023-06-14T17:04:32;2.35;;;1.60;;
17866;SDS011;9059;49.934;8.650;2023-06-14T17:07:35;3.05;;;1.88;;
17866;SDS011;9059;49.934;8.650;2023-06-14T17:10:38;2.72;;;1.90;;
17866;SDS011;9059;49.934;8.650;2023-06-14T17:13:42;4.82;;;2.00;;
17866;SDS011;9059;49.934;8.650;2023-06-14T17:16:45;2.25;;;2.00;;
17866;SDS011;9059;49.934;8.650;2023-06-14T17:19:47;4.72;;;2.03;;
17866;SDS011;9059;49.934;8.650;2023-06-14T17:22:51;1.88;;;1.77;;
17866;SDS011;9059;49.934;8.650;2023-06-14T17:25:53;3.47;;;1.98;;
17866;SDS011;9059;49.934;8.650;2023-06-14T17:28:58;4.35;;;2.15;;
17866;SDS011;9059;49.934;8.650;2023-06-14T17:32:01;2.20;;;2.03;;
17866;SDS011;9059;49.934;8.650;2023-06-14T17:35:04;4.72;;;2.15;;
17866;SDS011;9059;49.934;8.650;2023-06-14T17:38:07;2.10;;;1.90;;
17866;SDS011;9059;49.934;8.650;2023-06-14T17:41:10;2.97;;;2.10;;
17866;SDS011;9059;49.934;8.650;2023-06-14T17:44:16;2.80;;;2.20;;
17866;SDS011;9059;49.934;8.650;2023-06-14T17:47:19;5.60;;;2.10;;
17866;SDS011;9059;49.934;8.650;2023-06-14T17:50:36;4.07;;;2.03;;
17866;SDS011;9059;49.934;8.650;2023-06-14T17:53:40;2.15;;;2.00;;
17866;SDS011;9059;49.934;8.650;2023-06-14T17:56:43;2.03;;;1.92;;
17866;SDS011;9059;49.934;8.650;2023-06-14T17:59:47;2.72;;;2.25;;
17866;SDS011;9059;49.934;8.650;2023-06-14T18:02:51;1.88;;;1.77;;
17866;SDS011;9059;49.934;8.650;2023-06-14T18:05:59;1.95;;;1.80;;
17866;SDS011;9059;49.934;8.650;2023-06-14T18:09:03;2.88;;;1.80;;
17866;SDS011;9059;49.934;8.650;2023-06-14T18:12:06;2.10;;;1.95;;
17866;SDS011;9059;49.934;8.650;2023-06-14T18:15:12;4.22;;;2.10;;
17866;SDS011;9059;49.934;8.650;2023-06-14T18:18:15;2.10;;;1.77;;
17866;SDS011;9059;49.934;8.650;2023-06-14T18:21:18;3.53;;;2.20;;
17866;SDS011;9059;49.934;8.650;2023-06-14T18:24:22;2.45;;;1.88;;
17866;SDS011;9059;49.934;8.650;2023-06-14T18:27:25;2.53;;;1.92;;
17866;SDS011;9059;49.934;8.650;2023-06-14T18:30:31;1.77;;;1.65;;
17866;SDS011;9059;49.934;8.650;2023-06-14T18:33:34;2.28;;;1.88;;
17866;SDS011;9059;49.934;8.650;2023-06-14T18:36:36;3.13;;;1.90;;
17866;SDS011;9059;49.934;8.650;2023-06-14T18:39:40;2.10;;;1.90;;
17866;SDS011;9059;49.934;8.650;2023-06-14T18:42:44;4.45;;;1.98;;
17866;SDS011;9059;49.934;8.650;2023-06-14T18:45:48;3.15;;;1.92;;
17866;SDS011;9059;49.934;8.650;2023-06-14T18:48:51;2.53;;;2.17;;
17866;SDS011;9059;49.934;8.650;2023-06-14T18:51:53;2.80;;;1.80;;
17866;SDS011;9059;49.934;8.650;2023-06-14T18:54:56;2.13;;;1.92;;
17866;SDS011;9059;49.934;8.650;2023-06-14T18:57:59;5.05;;;2.10;;
17866;SDS011;9059;49.934;8.650;2023-06-14T19:01:03;2.60;;;1.65;;
17866;SDS011;9059;49.934;8.650;2023-06-14T19:04:06;2.28;;;1.90;;
17866;SDS011;9059;49.934;8.650;2023-06-14T19:07:09;5.93;;;1.90;;
17866;SDS011;9059;49.934;8.650;2023-06-14T19:10:12;2.53;;;2.20;;
17866;SDS011;9059;49.934;8.650;2023-06-14T19:13:15;2.45;;;1.88;;
17866;SDS011;9059;49.934;8.650;2023-06-14T19:16:19;2.03;;;1.75;;
17866;SDS011;9059;49.934;8.650;2023-06-14T19:19:22;5.22;;;2.10;;
17866;SDS011;9059;49.934;8.650;2023-06-14T19:22:25;4.18;;;2.10;;
17866;SDS011;9059;49.934;8.650;2023-06-14T19:25:28;3.80;;;1.85;;
17866;SDS011;9059;49.934;8.650;2023-06-14T19:28:31;3.83;;;2.38;;
17866;SDS011;9059;49.934;8.650;2023-06-14T19:31:35;4.55;;;2.10;;
17866;SDS011;9059;49.934;8.650;2023-06-14T19:34:38;6.55;;;1.80;;
17866;SDS011;9059;49.934;8.650;2023-06-14T19:37:44;5.85;;;2.40;;
17866;SDS011;9059;49.934;8.650;2023-06-14T19:40:47;9.18;;;2.03;;
17866;SDS011;9059;49.934;8.650;2023-06-14T19:43:50;3.03;;;1.83;;
17866;SDS011;9059;49.934;8.650;2023-06-14T19:46:54;2.15;;;1.90;;
17866;SDS011;9059;49.934;8.650;2023-06-14T19:49:57;2.72;;;2.03;;
17866;SDS011;9059;49.934;8.650;2023-06-14T19:53:00;2.80;;;2.17;;
17866;SDS011;9059;49.934;8.650;2023-06-14T19:56:03;2.25;;;1.80;;
17866;SDS011;9059;49.934;8.650;2023-06-14T19:59:08;4.53;;;1.95;;
17866;SDS011;9059;49.934;8.650;2023-06-14T20:02:12;3.85;;;2.30;;
17866;SDS011;9059;49.934;8.650;2023-06-14T20:05:15;2.58;;;1.95;;
17866;SDS011;9059;49.934;8.650;2023-06-14T20:08:18;10.68;;;2.47;;
17866;SDS011;9059;49.934;8.650;2023-06-14T20:11:24;2.42;;;1.90;;
17866;SDS011;9059;49.934;8.650;2023-06-14T20:14:28;3.50;;;2.33;;
17866;SDS011;9059;49.934;8.650;2023-06-14T20:17:32;2.90;;;2.00;;
17866;SDS011;9059;49.934;8.650;2023-06-14T20:20:35;3.35;;;2.15;;
17866;SDS011;9059;49.934;8.650;2023-06-14T20:23:40;6.45;;;2.15;;
17866;SDS011;9059;49.934;8.650;2023-06-14T20:26:43;3.08;;;2.20;;
17866;SDS011;9059;49.934;8.650;2023-06-14T20:29:46;4.05;;;1.90;;
17866;SDS011;9059;49.934;8.650;2023-06-14T20:32:50;6.10;;;1.80;;
17866;SDS011;9059;49.934;8.650;2023-06-14T20:35:52;5.60;;;2.05;;
17866;SDS011;9059;49.934;8.650;2023-06-14T20:38:55;2.65;;;1.92;;
17866;SDS011;9059;49.934;8.650;2023-06-14T20:41:58;3.30;;;1.98;;
17866;SDS011;9059;49.934;8.650;2023-06-14T20:45:01;11.10;;;1.83;;
17866;SDS011;9059;49.934;8.650;2023-06-14T20:48:06;7.70;;;1.88;;
17866;SDS011;9059;49.934;8.650;2023-06-14T20:51:09;3.20;;;2.10;;
17866;SDS011;9059;49.934;8.650;2023-06-14T20:54:13;2.63;;;1.90;;
17866;SDS011;9059;49.934;8.650;2023-06-14T20:57:16;2.30;;;1.95;;
17866;SDS011;9059;49.934;8.650;2023-06-14T21:00:23;2.78;;;2.13;;
17866;SDS011;9059;49.934;8.650;2023-06-14T21:03:27;3.35;;;1.95;;
17866;SDS011;9059;49.934;8.650;2023-06-14T21:06:30;3.05;;;2.10;;
17866;SDS011;9059;49.934;8.650;2023-06-14T21:09:33;5.20;;;2.00;;
17866;SDS011;9059;49.934;8.650;2023-06-14T21:12:36;2.63;;;1.77;;
17866;SDS011;9059;49.934;8.650;2023-06-14T21:15:39;2.65;;;1.98;;
17866;SDS011;9059;49.934;8.650;2023-06-14T21:18:43;2.50;;;2.10;;
17866;SDS011;9059;49.934;8.650;2023-06-14T21:21:46;3.50;;;1.80;;
17866;SDS011;9059;49.934;8.650;2023-06-14T21:24:49;3.42;;;2.17;;
17866;SDS011;9059;49.934;8.650;2023-06-14T21:27:52;2.25;;;1.83;;
17866;SDS011;9059;49.934;8.650;2023-06-14T21:30:54;3.08;;;2.03;;
17866;SDS011;9059;49.934;8.650;2023-06-14T21:33:59;5.07;;;1.88;;
17866;SDS011;9059;49.934;8.650;2023-06-14T21:37:01;3.50;;;1.70;;
17866;SDS011;9059;49.934;8.650;2023-06-14T21:40:05;2.85;;;2.00;;
17866;SDS011;9059;49.934;8.650;2023-06-14T21:43:09;2.38;;;1.88;;
17866;SDS011;9059;49.934;8.650;2023-06-14T21:46:12;2.85;;;2.13;;
17866;SDS011;9059;49.934;8.650;2023-06-14T21:49:16;3.40;;;1.70;;
17866;SDS011;9059;49.934;8.650;2023-06-14T21:52:18;6.53;;;1.70;;
17866;SDS011;9059;49.934;8.650;2023-06-14T21:55:21;2.47;;;1.60;;
17866;SDS011;9059;49.934;8.650;2023-06-14T21:58:24;3.45;;;1.85;;
17866;SDS011;9059;49.934;8.650;2023-06-14T22:01:27;2.70;;;1.80;;
17866;SDS011;9059;49.934;8.650;2023-06-14T22:04:31;5.32;;;1.77;;
17866;SDS011;9059;49.934;8.650;2023-06-14T22:07:34;7.13;;;1.98;;
17866;SDS011;9059;49.934;8.650;2023-06-14T22:10:37;2.50;;;1.98;;
17866;SDS011;9059;49.934;8.650;2023-06-14T22:13:40;3.10;;;2.10;;
17866;SDS011;9059;49.934;8.650;2023-06-14T22:16:44;3.22;;;2.15;;
17866;SDS011;9059;49.934;8.650;2023-06-14T22:19:49;5.40;;;1.80;;
17866;SDS011;9059;49.934;8.650;2023-06-14T22:22:53;2.15;;;1.60;;
17866;SDS011;9059;49.934;8.650;2023-06-14T22:25:58;2.80;;;1.90;;
17866;SDS011;9059;49.934;8.650;2023-06-14T22:29:01;6.28;;;2.13;;
17866;SDS011;9059;49.934;8.650;2023-06-14T22:32:06;2.67;;;1.95;;
17866;SDS011;9059;49.934;8.650;2023-06-14T22:35:12;1.88;;;1.50;;
17866;SDS011;9059;49.934;8.650;2023-06-14T22:38:15;3.15;;;1.90;;
17866;SDS011;9059;49.934;8.650;2023-06-14T22:41:20;3.60;;;1.92;;
17866;SDS011;9059;49.934;8.650;2023-06-14T22:44:27;3.92;;;1.73;;
17866;SDS011;9059;49.934;8.650;2023-06-14T22:47:33;3.20;;;1.80;;
17866;SDS011;9059;49.934;8.650;2023-06-14T22:50:37;4.20;;;2.05;;
17866;SDS011;9059;49.934;8.650;2023-06-14T22:53:40;4.72;;;1.92;;
17866;SDS011;9059;49.934;8.650;2023-06-14T22:56:44;2.25;;;1.70;;
17866;SDS011;9059;49.934;8.650;2023-06-14T22:59:46;2.65;;;1.58;;
17866;SDS011;9059;49.934;8.650;2023-06-14T23:02:49;3.92;;;1.90;;
17866;SDS011;9059;49.934;8.650;2023-06-14T23:05:53;2.03;;;1.55;;
17866;SDS011;9059;49.934;8.650;2023-06-14T23:09:00;5.60;;;1.88;;
17866;SDS011;9059;49.934;8.650;2023-06-14T23:12:06;2.92;;;1.70;;
17866;SDS011;9059;49.934;8.650;2023-06-14T23:15:10;2.55;;;1.60;;
17866;SDS011;9059;49.934;8.650;2023-06-14T23:18:13;4.03;;;1.60;;
17866;SDS011;9059;49.934;8.650;2023-06-14T23:21:17;2.55;;;1.80;;
17866;SDS011;9059;49.934;8.650;2023-06-14T23:24:20;2.92;;;1.65;;
17866;SDS011;9059;49.934;8.650;2023-06-14T23:27:23;2.08;;;1.50;;
17866;SDS011;9059;49.934;8.650;2023-06-14T23:30:26;1.88;;;1.50;;
17866;SDS011;9059;49.934;8.650;2023-06-14T23:33:29;4.22;;;1.95;;
17866;SDS011;9059;49.934;8.650;2023-06-14T23:36:33;2.78;;;1.85;;
17866;SDS011;9059;49.934;8.650;2023-06-14T23:39:36;2.58;;;1.60;;
17866;SDS011;9059;49.934;8.650;2023-06-14T23:42:46;2.63;;;1.90;;
17866;SDS011;9059;49.934;8.650;2023-06-14T23:45:52;2.58;;;1.50;;
17866;SDS011;9059;49.934;8.650;2023-06-14T23:48:57;2.97;;;1.70;;
17866;SDS011;9059;49.934;8.650;2023-06-14T23:52:01;2.38;;;1.48;;
17866;SDS011;9059;49.934;8.650;2023-06-14T23:55:04;2.92;;;1.50;;
17866;SDS011;9059;49.934;8.650;2023-06-14T23:58:07;2.95;;;1.92;;
